Time;durP1;ratioP1;P1;durP2;ratioP2;P2;SDS_P1;SDS_P2;PMS_P1;PMS_P2;Temp;Humidity;BMP_temperature;BMP_pressure;BME280_temperature;BME280_humidity;BME280_pressure;Samples;Min_cycle;Max_cycle;Signal;HPM_P1;HPM_P2
2021/11/21 00:16:46;;;;;;;17.23;11.55;;;;;;;7.04;71.98;94691.70;824304;71;33321;-80
2021/11/21 01:02:10;;;;;;;;;;;;;;;;;;;;;
2021/11/21 01:31:46;;;;;;;;;;;;;;;;;;;;;
2021/11/21 01:46:44;;;;;;;14.25;10.90;;;;;;;6.03;73.94;94616.93;827750;71;32746;-81
2021/11/21 02:16:42;;;;;;;14.38;12.45;;;;;;;5.94;74.57;94594.48;867209;68;30901;-83
2021/11/21 03:31:55;;;;;;;;;;;;;;;;;;;;;
2021/11/21 03:46:17;;;;;;;12.30;9.65;;;;;;;5.32;74.22;94583.53;833872;71;32902;-80
2021/11/21 04:46:40;;;;;;;15.38;12.00;;;;;;;4.69;75.58;94589.87;834912;71;32790;-80
2021/11/21 05:16:34;;;;;;;14.75;10.43;;;;;;;4.43;76.54;94584.97;865081;68;32576;-81
2021/11/21 06:16:28;;;;;;;20.43;16.12;;;;;;;7.29;71.85;94576.61;834921;71;32849;-79
2021/11/21 07:31:33;;;;;;;30.82;24.52;;;;;;;11.03;62.16;94533.86;828691;71;33204;-79
2021/11/21 07:46:37;;;;;;;37.08;26.80;;;;;;;9.63;62.46;94537.41;833636;71;32803;-79
2021/11/21 08:01:21;;;;;;;32.05;22.58;;;;;;;;;;833803;71;32762;-80
2021/11/21 08:16:24;;;;;;;23.50;17.90;;;;;;;8.82;63.82;94539.25;827719;71;31288;-79
2021/11/21 08:31:23;;;;;;;20.62;16.27;;;;;;;;;;833764;71;31710;-81
2021/11/21 08:46:57;;;;;;;19.55;17.25;;;;;;;10.06;62.67;94528.72;815248;72;31978;-80
2021/11/21 09:16:14;;;;;;;25.23;18.90;;;;;;;11.57;57.67;94473.20;827005;71;31708;-76
2021/11/21 09:31:35;;;;;;;25.60;20.40;;;;;;;12.37;56.81;94459.69;826647;71;32051;-79
2021/11/21 09:46:25;;;;;;;26.37;19.40;;;;;;;12.53;55.98;94427.98;827188;71;31822;-79
2021/11/21 10:16:55;;;;;;;;;;;;;;;;;;;;;
2021/11/21 11:46:29;;;;;;;19.30;15.35;;;;;;;15.82;45.88;94232.94;827811;71;31834;-82
2021/11/21 11:49:35;;;;;;;16.20;14.50;;;;;;;15.77;45.85;94233.16;744537;77;25359;-85
2021/11/21 11:50:46;;;;;;;15.63;14.05;;;;;;;15.77;45.75;94223.10;775465;73;25277;-85
2021/11/21 11:51:55;;;;;;;16.12;14.45;;;;;;;15.81;45.86;94222.67;808852;72;25274;-85
2021/11/21 11:53:07;;;;;;;16.50;14.80;;;;;;;15.88;45.76;94218.95;808838;73;25668;-82
2021/11/21 11:54:19;;;;;;;17.65;14.68;;;;;;;15.89;45.58;94219.16;795744;74;25632;-85
2021/11/21 11:55:27;;;;;;;16.30;14.60;;;;;;;15.88;45.47;94212.34;800883;73;25337;-83
2021/11/21 11:57:08;;;;;;;16.65;14.53;;;;;;;15.84;45.62;94211.45;808581;73;25290;-85
2021/11/21 11:58:31;;;;;;;18.80;15.48;;;;;;;15.56;45.63;94159.10;808464;73;25308;-83
2021/11/21 11:59:41;;;;;;;17.82;16.02;;;;;;;15.93;45.74;94203.41;800999;73;25361;-85
2021/11/21 12:00:48;;;;;;;17.80;14.75;;;;;;;15.94;45.47;94206.30;808189;73;25277;-84
2021/11/21 12:01:57;;;;;;;17.77;14.73;;;;;;;15.86;45.50;94206.60;808247;73;25406;-85
2021/11/21 12:03:23;;;;;;;16.48;14.58;;;;;;;15.80;45.49;94203.95;808389;73;25250;-83
2021/11/21 12:04:31;;;;;;;14.98;13.43;;;;;;;15.75;45.57;94204.94;808560;73;25320;-85
2021/11/21 12:05:37;;;;;;;18.90;15.28;;;;;;;15.75;45.72;94202.29;809522;73;25261;-85
2021/11/21 12:06:51;;;;;;;15.95;14.20;;;;;;;15.71;45.51;94205.31;810270;73;25312;-85
2021/11/21 12:07:57;;;;;;;16.35;13.40;;;;;;;15.61;45.43;94203.88;809832;72;25324;-86
2021/11/21 12:09:25;;;;;;;15.63;13.88;;;;;;;15.51;45.62;94203.48;804903;73;25286;-85
2021/11/21 12:10:30;;;;;;;16.62;14.65;;;;;;;15.44;45.65;94197.41;808131;73;26002;-83
2021/11/21 12:11:57;;;;;;;16.55;14.85;;;;;;;15.41;46.02;94200.16;806417;73;25258;-83
2021/11/21 12:13:08;;;;;;;15.80;14.20;;;;;;;15.41;46.01;94199.40;808093;73;25397;-87
2021/11/21 12:14:31;;;;;;;15.83;13.98;;;;;;;15.48;46.17;94195.66;808434;73;25304;-84
2021/11/21 12:15:41;;;;;;;16.45;14.35;;;;;;;15.59;46.09;94191.52;790993;73;25478;-84
2021/11/21 12:17:00;;;;;;;16.12;14.33;;;;;;;15.67;45.91;94195.16;807949;72;25238;-83
2021/11/21 12:18:07;;;;;;;17.48;14.85;;;;;;;15.78;45.89;94192.92;808509;73;25235;-86
2021/11/21 12:19:11;;;;;;;16.40;14.70;;;;;;;15.89;45.69;94184.00;808623;73;25254;-87
2021/11/21 12:20:22;;;;;;;18.90;15.05;;;;;;;15.98;45.54;94188.09;808472;73;25284;-86
2021/11/21 12:21:58;;;;;;;16.52;14.10;;;;;;;16.10;45.37;94184.70;794096;73;25249;-85
2021/11/21 12:23:55;;;;;;;17.60;15.32;;;;;;;16.04;44.91;94191.31;794013;73;25219;-86
2021/11/21 12:26:44;;;;;;;17.62;15.80;;;;;;;15.87;45.19;94182.23;737578;79;25361;-83
2021/11/21 12:27:57;;;;;;;17.82;15.93;;;;;;;15.76;45.28;94187.18;741172;78;25358;-85
2021/11/21 12:29:23;;;;;;;17.62;15.65;;;;;;;15.58;45.66;94183.35;757347;78;26055;-84
2021/11/21 12:30:27;;;;;;;17.57;15.38;;;;;;;15.49;45.91;94186.64;760718;76;25283;-85
2021/11/21 12:31:34;;;;;;;17.55;15.75;;;;;;;15.40;46.19;94179.33;808998;73;25253;-87
2021/11/21 12:33:05;;;;;;;19.25;16.30;;;;;;;15.35;46.27;94173.70;805333;73;25269;-85
2021/11/21 12:34:32;;;;;;;19.45;16.45;;;;;;;15.34;46.37;94183.27;808403;73;25759;-85
2021/11/21 12:35:40;;;;;;;20.35;15.70;;;;;;;15.32;46.54;94180.95;809314;73;25194;-85
2021/11/21 12:37:16;;;;;;;17.52;15.65;;;;;;;15.26;46.65;94184.13;809567;73;25188;-85
2021/11/21 12:38:25;;;;;;;17.20;14.65;;;;;;;15.28;46.72;94182.70;764897;77;26268;-84
2021/11/21 12:39:31;;;;;;;20.92;16.17;;;;;;;15.32;46.72;94182.27;764193;77;26258;-87
2021/11/21 12:41:05;;;;;;;19.80;16.25;;;;;;;15.36;46.64;94173.91;764503;77;25335;-83
2021/11/21 12:42:19;;;;;;;18.42;16.40;;;;;;;15.36;46.64;94177.11;730557;75;25353;-84
2021/11/21 12:43:48;;;;;;;17.65;15.20;;;;;;;15.25;46.71;94177.28;741335;78;25419;-85
2021/11/21 12:45:29;;;;;;;16.42;14.73;;;;;;;15.15;46.84;94175.83;728799;80;25745;-83
2021/11/21 12:47:21;;;;;;;17.00;13.65;;;;;;;15.11;46.94;94169.64;742043;78;25317;-83
2021/11/21 12:48:48;;;;;;;16.75;14.40;;;;;;;15.17;47.03;94177.60;737600;78;25849;-85
2021/11/21 12:50:41;;;;;;;17.00;15.08;;;;;;;15.22;46.98;94169.45;730287;80;25387;-85
2021/11/21 12:52:23;;;;;;;16.07;14.13;;;;;;;15.29;46.91;94168.92;739729;78;25361;-87
2021/11/21 12:53:43;;;;;;;15.43;13.70;;;;;;;15.37;46.92;94174.16;743946;78;25815;-87
2021/11/21 12:55:09;;;;;;;16.48;14.65;;;;;;;15.42;46.86;94173.94;759192;75;25335;-84
2021/11/21 12:56:23;;;;;;;17.10;14.70;;;;;;;15.48;46.79;94174.51;788249;74;25537;-80
2021/11/21 12:57:50;;;;;;;17.52;15.30;;;;;;;15.55;46.77;94172.12;794799;74;25226;-82
2021/11/21 12:59:16;;;;;;;18.40;15.63;;;;;;;15.50;46.50;94168.34;792977;74;25197;-84
2021/11/21 13:00:48;;;;;;;15.53;13.85;;;;;;;15.49;46.67;94165.48;779368;76;25764;-81
2021/11/21 13:02:19;;;;;;;16.67;14.87;;;;;;;15.49;46.55;94170.78;777292;76;25306;-82
2021/11/21 13:03:59;;;;;;;18.77;14.73;;;;;;;15.45;46.69;94157.19;779257;76;25804;-82
2021/11/21 13:05:48;;;;;;;17.05;14.50;;;;;;;15.57;50.10;94171.24;777935;76;25301;-84
2021/11/21 13:07:40;;;;;;;19.48;15.65;;;;;;;15.55;47.95;94166.83;778914;76;25365;-81
2021/11/21 13:09:11;;;;;;;17.62;15.72;;;;;;;15.54;47.12;94168.47;777932;76;25292;-84
2021/11/21 13:11:06;;;;;;;20.00;16.32;;;;;;;15.49;47.02;94166.81;778759;76;25353;-80
2021/11/21 13:12:54;;;;;;;19.80;16.65;;;;;;;15.47;47.08;94162.41;777299;76;25353;-83
2021/11/21 13:14:54;;;;;;;19.10;16.75;;;;;;;15.45;47.05;94158.52;779564;76;25223;-82
2021/11/21 13:16:40;;;;;;;20.23;16.82;;;;;;;15.41;47.43;94157.09;764706;77;25384;-83
2021/11/21 13:18:24;;;;;;;24.10;18.40;;;;;;;15.37;47.75;94165.45;776134;76;25265;-84
2021/11/21 13:20:08;;;;;;;24.27;18.17;;;;;;;15.36;47.84;94158.05;774389;76;25829;-83
2021/11/21 13:21:40;;;;;;;21.82;18.17;;;;;;;15.34;47.89;94158.92;778232;76;25697;-84
2021/11/21 13:23:09;;;;;;;25.62;19.27;;;;;;;15.33;47.62;94146.83;779598;76;25308;-83
2021/11/21 13:24:39;;;;;;;23.18;19.40;;;;;;;15.34;47.59;94152.88;779667;76;25274;-82
2021/11/21 13:26:24;;;;;;;22.25;18.57;;;;;;;15.35;47.68;94153.11;726546;80;25318;-82
2021/11/21 13:28:17;;;;;;;22.48;18.80;;;;;;;15.35;47.66;94150.47;728854;80;25831;-81
2021/11/21 13:29:49;;;;;;;23.55;18.57;;;;;;;15.35;47.71;94155.20;717824;81;26256;-80
2021/11/21 13:31:04;;;;;;;22.87;19.02;;;;;;;15.33;47.75;94147.37;716724;82;25735;-81
2021/11/21 13:32:15;;;;;;;27.07;19.92;;;;;;;15.32;47.75;94144.50;769765;76;25895;-78
2021/11/21 13:33:24;;;;;;;25.77;20.50;;;;;;;15.29;47.84;94150.42;779073;76;25360;-79
2021/11/21 13:34:30;;;;;;;24.07;20.23;;;;;;;15.26;47.77;94141.28;765852;77;25339;-83
2021/11/21 13:35:54;;;;;;;24.32;20.92;;;;;;;15.23;47.71;94142.70;755708;77;25333;-85
2021/11/21 13:37:10;;;;;;;24.40;20.57;;;;;;;15.17;47.75;94145.89;768209;76;25283;-80
2021/11/21 13:38:26;;;;;;;24.37;19.67;;;;;;;15.09;47.85;94145.41;778828;76;25563;-81
2021/11/21 13:39:36;;;;;;;24.77;21.02;;;;;;;15.00;47.89;94141.50;765809;77;25374;-82
2021/11/21 13:41:04;;;;;;;24.32;19.67;;;;;;;14.94;48.05;94140.95;772704;76;25340;-80
2021/11/21 13:42:19;;;;;;;22.50;19.35;;;;;;;14.86;48.25;94133.84;777878;76;25274;-78
2021/11/21 13:43:36;;;;;;;23.50;20.15;;;;;;;14.83;48.42;94140.55;779817;76;25294;-82
2021/11/21 13:45:22;;;;;;;26.33;20.92;;;;;;;14.77;48.55;94133.92;779130;76;25779;-80
2021/11/21 13:46:35;;;;;;;25.55;18.92;;;;;;;14.72;48.80;94129.38;777789;76;25694;-82
2021/11/21 13:47:41;;;;;;;23.05;19.10;;;;;;;14.69;48.90;94132.67;771348;76;25287;-81
2021/11/21 13:48:48;;;;;;;23.38;19.75;;;;;;;14.67;49.01;94133.55;776041;75;25718;-80
2021/11/21 13:49:55;;;;;;;24.50;20.25;;;;;;;14.66;49.03;94134.63;788472;75;25206;-80
2021/11/21 13:51:03;;;;;;;26.15;21.45;;;;;;;14.65;49.04;94133.09;788677;75;25351;-82
2021/11/21 13:52:10;;;;;;;23.52;19.67;;;;;;;14.62;48.97;94132.64;788844;75;25286;-81
2021/11/21 13:53:15;;;;;;;24.82;20.45;;;;;;;14.60;49.13;94129.55;775611;76;25415;-81
2021/11/21 13:54:27;;;;;;;24.12;20.90;;;;;;;14.58;49.20;94125.14;762558;76;25300;-81
2021/11/21 13:55:31;;;;;;;22.52;20.02;;;;;;;14.56;49.34;94120.72;777638;75;25334;-82
2021/11/21 13:56:45;;;;;;;27.55;20.65;;;;;;;14.54;49.38;94126.84;788367;75;25382;-85
2021/11/21 13:58:28;;;;;;;29.45;21.93;;;;;;;14.52;49.35;94126.95;788425;75;25624;-80
2021/11/21 13:59:55;;;;;;;25.77;20.23;;;;;;;14.44;49.42;94121.94;804966;73;25680;-81
2021/11/21 14:01:37;;;;;;;27.27;20.52;;;;;;;14.36;49.51;94124.86;774268;76;25331;-82
2021/11/21 14:03:22;;;;;;;23.18;19.40;;;;;;;14.29;49.74;94133.05;736655;80;25308;-85
2021/11/21 14:04:46;;;;;;;25.17;19.75;;;;;;;14.23;49.90;94127.17;736703;80;25374;-82
2021/11/21 14:06:11;;;;;;;24.75;19.05;;;;;;;14.16;50.03;94134.84;736416;80;25407;-82
2021/11/21 14:07:26;;;;;;;22.25;18.55;;;;;;;14.11;49.98;94129.73;735391;80;25359;-76
2021/11/21 14:08:49;;;;;;;21.80;17.90;;;;;;;14.05;50.09;94131.00;735401;80;25378;-79
2021/11/21 14:10:25;;;;;;;23.87;18.95;;;;;;;13.98;50.10;94125.67;735844;80;25407;-81
2021/11/21 14:11:59;;;;;;;26.68;21.73;;;;;;;13.88;50.10;94129.22;732019;80;25329;-79
2021/11/21 14:13:23;;;;;;;27.45;20.85;;;;;;;13.77;50.29;94129.58;735464;80;25356;-80
2021/11/21 14:15:11;;;;;;;25.52;19.10;;;;;;;13.70;50.52;94131.16;749556;76;25983;-81
2021/11/21 14:16:33;;;;;;;26.05;20.25;;;;;;;13.61;50.84;94127.23;771422;76;25938;-81
2021/11/21 14:18:02;;;;;;;27.58;20.02;;;;;;;13.29;51.05;94086.37;760317;76;25416;-79
2021/11/21 14:19:40;;;;;;;21.25;17.60;;;;;;;13.50;51.24;94122.83;767891;76;25326;-83
2021/11/21 14:21:08;;;;;;;22.42;17.77;;;;;;;13.20;51.36;94090.36;772448;76;25321;-81
2021/11/21 14:22:41;;;;;;;19.40;16.45;;;;;;;13.40;51.50;94131.08;771831;76;25869;-81
2021/11/21 14:24:19;;;;;;;23.20;17.00;;;;;;;13.35;51.67;94127.30;756592;78;25768;-81
2021/11/21 14:25:51;;;;;;;21.75;16.70;;;;;;;13.31;51.81;94131.66;770588;76;25299;-80
2021/11/21 14:27:30;;;;;;;17.57;14.98;;;;;;;13.25;51.98;94125.74;774751;76;25293;-82
2021/11/21 14:29:01;;;;;;;22.30;16.05;;;;;;;13.22;52.06;94131.09;774654;76;25197;-82
2021/11/21 14:30:38;;;;;;;23.85;16.55;;;;;;;13.16;52.20;94123.68;759062;78;25314;-84
2021/11/21 14:32:08;;;;;;;21.05;16.37;;;;;;;13.10;52.36;94126.22;764346;76;25418;-81
2021/11/21 14:33:37;;;;;;;19.98;16.25;;;;;;;13.03;52.57;94125.38;771528;76;25272;-81
2021/11/21 14:34:59;;;;;;;23.15;16.25;;;;;;;12.99;52.69;94127.86;774158;76;25221;-80
2021/11/21 14:36:32;;;;;;;20.23;16.23;;;;;;;12.94;52.75;94130.66;772273;76;25292;-80
2021/11/21 14:38:02;;;;;;;20.82;15.80;;;;;;;12.89;52.89;94125.55;769751;76;25393;-78
2021/11/21 14:39:30;;;;;;;23.00;15.55;;;;;;;12.83;52.97;94122.83;771068;76;25228;-81
2021/11/21 14:41:12;;;;;;;23.27;16.42;;;;;;;12.77;53.17;94120.12;769568;76;25402;-78
2021/11/21 14:42:18;;;;;;;19.42;15.20;;;;;;;12.72;53.28;94121.06;760972;78;25377;-83
2021/11/21 14:43:40;;;;;;;;;;;;;;;;;;;;;
2021/11/21 14:45:09;;;;;;;20.40;16.30;;;;;;;12.66;53.49;94122.86;738695;80;25683;-80
2021/11/21 14:46:14;;;;;;;19.37;15.78;;;;;;;12.62;53.55;94122.69;738317;78;25308;-78
2021/11/21 14:47:19;;;;;;;19.95;16.07;;;;;;;12.59;53.59;94125.41;760126;78;25396;-76
2021/11/21 14:48:28;;;;;;;21.52;17.65;;;;;;;12.57;53.77;94123.63;761040;78;25334;-80
2021/11/21 14:49:35;;;;;;;20.32;17.65;;;;;;;12.56;53.99;94124.69;759515;78;25326;-78
2021/11/21 14:50:40;;;;;;;21.25;17.82;;;;;;;12.55;54.02;94125.00;760831;78;25521;-79
2021/11/21 14:51:45;;;;;;;21.50;17.95;;;;;;;12.53;54.07;94122.69;748427;79;25397;-78
2021/11/21 14:52:50;;;;;;;27.05;20.48;;;;;;;12.50;54.21;94127.25;803604;73;25292;-81
2021/11/21 14:53:59;;;;;;;24.98;19.42;;;;;;;12.47;54.26;94125.24;812244;72;25565;-78
2021/11/21 14:55:05;;;;;;;28.62;20.60;;;;;;;12.46;54.34;94125.00;811895;72;25246;-78
2021/11/21 14:56:10;;;;;;;28.50;21.05;;;;;;;12.41;54.50;94129.88;812382;72;25474;-79
2021/11/21 14:57:18;;;;;;;28.50;21.40;;;;;;;12.39;54.59;94122.83;814067;71;25272;-79
2021/11/21 14:58:33;;;;;;;29.40;22.30;;;;;;;12.38;54.68;94124.45;805060;74;25236;-82
2021/11/21 14:59:39;;;;;;;32.67;21.35;;;;;;;12.36;54.76;94124.75;783091;76;25457;-81
2021/11/21 15:00:44;;;;;;;29.12;22.13;;;;;;;12.33;54.82;94128.55;790588;75;25306;-78
2021/11/21 15:16:12;;;;;;;44.58;28.60;;;;;;;10.92;57.01;94125.04;833934;71;29238;-81
